Airfield :
LOGIN :

Register | Disclaimer

   EN    FR    IT 

 










Legend :    VFR   Marginal VFR   IFR   Intensive IFR   Very Intensive IFR
Visi :
Ceiling :
>= 8 km
>= 3000ft
5 to 8 km
1000 to 3000 ft
1500m to 5 km
500 to 1000 ft
800 to 1500m
200 to 500 ft
< 800m
< 200 ft
Symbols :   Thunderstorms  Fog  Heavy snow  Heavy precipitations  Wind > 20 kt
SIGMETs :     Misc.  Thunderstorms  Icing  Turbulence  Mountain Waves  Volcanic Ashes







- Airport Elevation : 309 ft
- IATA code : FNI
- Download approach charts


LFTW - Nîmes Garons

CURRENT METAR :
  • 170730Z AUTO 02009KT CAVOK 27/17 Q1018 NOSIG

EXPIRED METARs :
  • 170700Z AUTO 36006KT CAVOK 25/17 Q1018 NOSIG
  • 170630Z AUTO 36006KT CAVOK 25/16 Q1018 NOSIG
  • 170600Z AUTO 36004KT CAVOK 23/16 Q1018 NOSIG
  • 170530Z AUTO 01004KT CAVOK 21/16 Q1018 NOSIG
  • 170500Z AUTO 34004KT CAVOK 20/15 Q1018 NOSIG

TAF TAF LFTW
Valid from the 17 at 03:00 until the 18 at 03:00 UTC


170200Z 1703/1803 35010KT CAVOK
BECMG 1713/1715 22012KT
BECMG 1719/1721 VRB03KT
No reported NOTAMs for that airfield.



MET'MAP, your aeronautical weather chart ! - Copyright ORBIFLY December 2007 - Disclaimer

ORBIFLY MET'MAP TEAM :

Programming & Development : Alexandra Zaïnal
Concept & Development : Baudouin d'Aumeries
Co-Development & Prog : Marc-Olivier Méhu
Technical & hardware support : Manuel Goepfert

Contact : metmap@orbifly.com




SOURCES & CREDITS :

   NOAA